ケアンズ の空港の天気 - METARとTAF

ケアンズ国際空港 ( YBCS / CNS ) - オーストラリア クイーンズランド州ケアンズ
飛行場実況気象(Metar)
観測時間08/26 02:00 AEST (08/25 16:00 UTC)
風向・風速南東 5m/s
視程10km以上
天気現象
全天を覆う雲 雲底高度 1070m
気温18℃
湿度83%
気圧1016hPa
METARYBCS 251600Z AUTO 14009KT 9999 // OVC035 18/15 Q1016 RF00.0/000.0 FM1630 17007KT 9999 SCT025
過去の天気等 Google飛行場航空写真 Wunderground天気予報

過去48時間のMETAR

飛行場予報(TAF)
発表時間: 8/25 21:15 AEST (8/25 11:15 UTC)
予報対象時間: 25日22時 AEST ~ 26日22時 AEST
風向・風速南 4m/s
視程10km以上
全天の4割程度の雲 雲底高度 760m
26日11時 AEST から
風向・風速南東 7m/s
視程10km以上
少しの雲 雲底高度 1220m
26日18時 AEST から
風向・風速南 4m/s
視程10km以上
少しの雲 雲底高度 760m
TAF YBCS 251115Z 2512/2612 17007KT 9999 SCT025
FM260100 13014KT 9999 FEW040
FM260800 17007KT 9999 FEW025